sensor_id;sensor_type;location;lat;lon;timestamp;temperature;humidity
37528;DHT22;23372;52.050;4.810;2024-01-10T00:02:03;-3.50;99.90
37528;DHT22;23372;52.050;4.810;2024-01-10T00:04:29;-3.50;99.90
37528;DHT22;23372;52.050;4.810;2024-01-10T00:06:54;-3.50;99.90
37528;DHT22;23372;52.050;4.810;2024-01-10T00:09:20;-3.50;99.90
37528;DHT22;23372;52.050;4.810;2024-01-10T00:11:45;-3.50;99.90
37528;DHT22;23372;52.050;4.810;2024-01-10T00:14:11;-3.50;99.90
37528;DHT22;23372;52.050;4.810;2024-01-10T00:16:36;-3.50;99.90
37528;DHT22;23372;52.050;4.810;2024-01-10T00:19:02;-3.50;99.90
37528;DHT22;23372;52.050;4.810;2024-01-10T00:21:28;-3.50;99.90
37528;DHT22;23372;52.050;4.810;2024-01-10T00:23:54;-3.60;99.90
37528;DHT22;23372;52.050;4.810;2024-01-10T00:26:20;-3.60;99.90
37528;DHT22;23372;52.050;4.810;2024-01-10T00:28:45;-3.60;99.90
37528;DHT22;23372;52.050;4.810;2024-01-10T00:31:14;-3.70;99.90
37528;DHT22;23372;52.050;4.810;2024-01-10T00:33:40;-3.70;99.90
37528;DHT22;23372;52.050;4.810;2024-01-10T00:36:06;-3.70;99.90
37528;DHT22;23372;52.050;4.810;2024-01-10T00:38:32;-3.60;99.90
37528;DHT22;23372;52.050;4.810;2024-01-10T00:40:58;-3.60;99.90
37528;DHT22;23372;52.050;4.810;2024-01-10T00:43:24;-3.60;99.90
37528;DHT22;23372;52.050;4.810;2024-01-10T00:45:49;-3.60;99.90
37528;DHT22;23372;52.050;4.810;2024-01-10T00:48:15;-3.60;99.90
37528;DHT22;23372;52.050;4.810;2024-01-10T00:50:42;-3.60;99.90
37528;DHT22;23372;52.050;4.810;2024-01-10T00:53:09;-3.50;99.90
37528;DHT22;23372;52.050;4.810;2024-01-10T00:55:35;-3.60;99.90
37528;DHT22;23372;52.050;4.810;2024-01-10T00:58:00;-3.50;99.90
37528;DHT22;23372;52.050;4.810;2024-01-10T01:00:26;-3.50;99.90
37528;DHT22;23372;52.050;4.810;2024-01-10T01:02:52;-3.50;99.90
37528;DHT22;23372;52.050;4.810;2024-01-10T01:05:17;-3.50;99.90
37528;DHT22;23372;52.050;4.810;2024-01-10T01:07:43;-3.50;99.90
37528;DHT22;23372;52.050;4.810;2024-01-10T01:10:08;-3.50;99.90
37528;DHT22;23372;52.050;4.810;2024-01-10T01:12:34;-3.50;99.90
37528;DHT22;23372;52.050;4.810;2024-01-10T01:15:00;-3.50;99.90
37528;DHT22;23372;52.050;4.810;2024-01-10T01:17:25;-3.50;99.90
37528;DHT22;23372;52.050;4.810;2024-01-10T01:19:51;-3.50;99.90
37528;DHT22;23372;52.050;4.810;2024-01-10T01:22:16;-3.60;99.90
37528;DHT22;23372;52.050;4.810;2024-01-10T01:24:42;-3.60;99.90
37528;DHT22;23372;52.050;4.810;2024-01-10T01:27:07;-3.50;99.90
37528;DHT22;23372;52.050;4.810;2024-01-10T01:29:33;-3.50;99.90
37528;DHT22;23372;52.050;4.810;2024-01-10T01:31:58;-3.50;99.90
37528;DHT22;23372;52.050;4.810;2024-01-10T01:34:24;-3.50;99.90
37528;DHT22;23372;52.050;4.810;2024-01-10T01:36:50;-3.50;99.90
37528;DHT22;23372;52.050;4.810;2024-01-10T01:39:17;-3.50;99.90
37528;DHT22;23372;52.050;4.810;2024-01-10T01:41:43;-3.50;99.90
37528;DHT22;23372;52.050;4.810;2024-01-10T01:44:08;-3.50;99.90
37528;DHT22;23372;52.050;4.810;2024-01-10T01:46:34;-3.50;99.90
37528;DHT22;23372;52.050;4.810;2024-01-10T01:49:00;-3.50;99.90
37528;DHT22;23372;52.050;4.810;2024-01-10T01:51:28;-3.50;99.90
37528;DHT22;23372;52.050;4.810;2024-01-10T01:53:54;-3.50;99.90
37528;DHT22;23372;52.050;4.810;2024-01-10T01:56:20;-3.50;99.90
37528;DHT22;23372;52.050;4.810;2024-01-10T01:58:48;-3.50;99.90
37528;DHT22;23372;52.050;4.810;2024-01-10T02:01:15;-3.50;99.90
37528;DHT22;23372;52.050;4.810;2024-01-10T02:03:41;-3.60;99.90
37528;DHT22;23372;52.050;4.810;2024-01-10T02:06:07;-3.60;99.90
37528;DHT22;23372;52.050;4.810;2024-01-10T02:08:34;-3.60;99.90
37528;DHT22;23372;52.050;4.810;2024-01-10T02:11:03;-3.60;99.90
37528;DHT22;23372;52.050;4.810;2024-01-10T02:13:29;-3.60;99.90
37528;DHT22;23372;52.050;4.810;2024-01-10T02:15:55;-3.60;99.90
37528;DHT22;23372;52.050;4.810;2024-01-10T02:18:21;-3.70;99.90
37528;DHT22;23372;52.050;4.810;2024-01-10T02:20:47;-3.70;99.90
37528;DHT22;23372;52.050;4.810;2024-01-10T02:23:13;-3.70;99.90
37528;DHT22;23372;52.050;4.810;2024-01-10T02:25:39;-3.80;99.90
37528;DHT22;23372;52.050;4.810;2024-01-10T02:28:05;-3.80;99.90
37528;DHT22;23372;52.050;4.810;2024-01-10T02:30:31;-3.80;99.90
37528;DHT22;23372;52.050;4.810;2024-01-10T02:32:56;-3.80;99.90
37528;DHT22;23372;52.050;4.810;2024-01-10T02:35:22;-3.80;99.90
37528;DHT22;23372;52.050;4.810;2024-01-10T02:37:47;-3.80;99.90
37528;DHT22;23372;52.050;4.810;2024-01-10T02:40:16;-3.80;99.90
37528;DHT22;23372;52.050;4.810;2024-01-10T02:42:42;-3.90;99.90
37528;DHT22;23372;52.050;4.810;2024-01-10T02:45:08;-3.80;99.90
37528;DHT22;23372;52.050;4.810;2024-01-10T02:47:33;-3.90;99.90
37528;DHT22;23372;52.050;4.810;2024-01-10T02:50:00;-3.90;99.90
37528;DHT22;23372;52.050;4.810;2024-01-10T02:52:25;-3.90;99.90
37528;DHT22;23372;52.050;4.810;2024-01-10T02:54:51;-3.90;99.90
37528;DHT22;23372;52.050;4.810;2024-01-10T02:57:16;-3.90;99.90
37528;DHT22;23372;52.050;4.810;2024-01-10T02:59:42;-3.90;99.90
37528;DHT22;23372;52.050;4.810;2024-01-10T03:02:07;-4.00;99.90
37528;DHT22;23372;52.050;4.810;2024-01-10T03:04:33;-4.10;99.90
37528;DHT22;23372;52.050;4.810;2024-01-10T03:06:58;-4.00;99.90
37528;DHT22;23372;52.050;4.810;2024-01-10T03:09:24;-4.00;99.90
37528;DHT22;23372;52.050;4.810;2024-01-10T03:11:49;-4.10;99.90
37528;DHT22;23372;52.050;4.810;2024-01-10T03:14:15;-4.10;99.90
37528;DHT22;23372;52.050;4.810;2024-01-10T03:16:40;-4.00;99.90
37528;DHT22;23372;52.050;4.810;2024-01-10T03:19:06;-4.00;99.90
37528;DHT22;23372;52.050;4.810;2024-01-10T03:21:31;-4.00;99.90
37528;DHT22;23372;52.050;4.810;2024-01-10T03:23:58;-4.00;99.90
37528;DHT22;23372;52.050;4.810;2024-01-10T03:26:24;-4.00;99.90
37528;DHT22;23372;52.050;4.810;2024-01-10T03:28:50;-4.10;99.90
37528;DHT22;23372;52.050;4.810;2024-01-10T03:31:16;-4.10;99.90
37528;DHT22;23372;52.050;4.810;2024-01-10T03:33:42;-4.10;99.90
37528;DHT22;23372;52.050;4.810;2024-01-10T03:36:15;-4.10;99.90
37528;DHT22;23372;52.050;4.810;2024-01-10T03:38:41;-4.10;99.90
37528;DHT22;23372;52.050;4.810;2024-01-10T03:41:07;-4.20;99.90
37528;DHT22;23372;52.050;4.810;2024-01-10T03:43:32;-4.10;99.90
37528;DHT22;23372;52.050;4.810;2024-01-10T03:45:58;-4.20;99.90
37528;DHT22;23372;52.050;4.810;2024-01-10T03:48:24;-4.20;99.90
37528;DHT22;23372;52.050;4.810;2024-01-10T03:50:50;-4.10;99.90
37528;DHT22;23372;52.050;4.810;2024-01-10T03:53:15;-4.10;99.90
37528;DHT22;23372;52.050;4.810;2024-01-10T03:55:41;-4.20;99.90
37528;DHT22;23372;52.050;4.810;2024-01-10T03:58:07;-4.10;99.90
37528;DHT22;23372;52.050;4.810;2024-01-10T04:00:32;-4.20;99.90
37528;DHT22;23372;52.050;4.810;2024-01-10T04:02:58;-4.20;99.90
37528;DHT22;23372;52.050;4.810;2024-01-10T04:05:24;-4.20;99.90
37528;DHT22;23372;52.050;4.810;2024-01-10T04:07:51;-4.20;99.90
37528;DHT22;23372;52.050;4.810;2024-01-10T04:10:17;-4.20;99.90
37528;DHT22;23372;52.050;4.810;2024-01-10T04:12:46;-4.20;99.90
37528;DHT22;23372;52.050;4.810;2024-01-10T04:15:12;-4.20;99.90
37528;DHT22;23372;52.050;4.810;2024-01-10T04:17:38;-4.20;99.90
37528;DHT22;23372;52.050;4.810;2024-01-10T04:20:04;-4.20;99.90
37528;DHT22;23372;52.050;4.810;2024-01-10T04:22:30;-4.20;99.90
37528;DHT22;23372;52.050;4.810;2024-01-10T04:24:59;-4.20;99.90
37528;DHT22;23372;52.050;4.810;2024-01-10T04:27:26;-4.20;99.90
37528;DHT22;23372;52.050;4.810;2024-01-10T04:29:51;-4.20;99.90
37528;DHT22;23372;52.050;4.810;2024-01-10T04:32:17;-4.20;99.90
37528;DHT22;23372;52.050;4.810;2024-01-10T04:34:42;-4.20;99.90
37528;DHT22;23372;52.050;4.810;2024-01-10T04:37:08;-4.20;99.90
37528;DHT22;23372;52.050;4.810;2024-01-10T04:39:34;-4.30;99.90
37528;DHT22;23372;52.050;4.810;2024-01-10T04:42:00;-4.30;99.90
37528;DHT22;23372;52.050;4.810;2024-01-10T04:44:25;-4.30;99.90
37528;DHT22;23372;52.050;4.810;2024-01-10T04:46:51;-4.30;99.90
37528;DHT22;23372;52.050;4.810;2024-01-10T04:49:17;-4.30;99.90
37528;DHT22;23372;52.050;4.810;2024-01-10T04:51:42;-4.30;99.90
37528;DHT22;23372;52.050;4.810;2024-01-10T04:54:08;-4.40;99.90
37528;DHT22;23372;52.050;4.810;2024-01-10T04:56:34;-4.30;99.90
37528;DHT22;23372;52.050;4.810;2024-01-10T04:59:02;-4.30;99.90
37528;DHT22;23372;52.050;4.810;2024-01-10T05:01:27;-4.30;99.90
37528;DHT22;23372;52.050;4.810;2024-01-10T05:03:53;-4.30;99.90
37528;DHT22;23372;52.050;4.810;2024-01-10T05:06:18;-4.30;99.90
37528;DHT22;23372;52.050;4.810;2024-01-10T05:08:44;-4.30;99.90
37528;DHT22;23372;52.050;4.810;2024-01-10T05:11:09;-4.30;99.90
37528;DHT22;23372;52.050;4.810;2024-01-10T05:13:35;-4.30;99.90
37528;DHT22;23372;52.050;4.810;2024-01-10T05:16:00;-4.30;99.90
37528;DHT22;23372;52.050;4.810;2024-01-10T05:18:26;-4.20;99.90
37528;DHT22;23372;52.050;4.810;2024-01-10T05:20:52;-4.30;99.90
37528;DHT22;23372;52.050;4.810;2024-01-10T05:23:17;-4.20;99.90
37528;DHT22;23372;52.050;4.810;2024-01-10T05:25:43;-4.20;99.90
37528;DHT22;23372;52.050;4.810;2024-01-10T05:28:08;-4.20;99.90
37528;DHT22;23372;52.050;4.810;2024-01-10T05:30:34;-4.20;99.90
37528;DHT22;23372;52.050;4.810;2024-01-10T05:33:00;-4.20;99.90
37528;DHT22;23372;52.050;4.810;2024-01-10T05:35:26;-4.20;99.90
37528;DHT22;23372;52.050;4.810;2024-01-10T05:37:52;-4.20;99.90
37528;DHT22;23372;52.050;4.810;2024-01-10T05:40:18;-4.20;99.90
37528;DHT22;23372;52.050;4.810;2024-01-10T05:42:44;-4.20;99.90
37528;DHT22;23372;52.050;4.810;2024-01-10T05:45:10;-4.20;99.90
37528;DHT22;23372;52.050;4.810;2024-01-10T05:47:35;-4.20;99.90
37528;DHT22;23372;52.050;4.810;2024-01-10T05:50:01;-4.20;99.90
37528;DHT22;23372;52.050;4.810;2024-01-10T05:52:27;-4.20;99.90
37528;DHT22;23372;52.050;4.810;2024-01-10T05:54:53;-4.20;99.90
37528;DHT22;23372;52.050;4.810;2024-01-10T05:57:18;-4.20;99.90
37528;DHT22;23372;52.050;4.810;2024-01-10T05:59:44;-4.20;99.90
37528;DHT22;23372;52.050;4.810;2024-01-10T06:02:10;-4.20;99.90
37528;DHT22;23372;52.050;4.810;2024-01-10T06:04:35;-4.10;99.90
37528;DHT22;23372;52.050;4.810;2024-01-10T06:07:01;-4.10;99.90
37528;DHT22;23372;52.050;4.810;2024-01-10T06:09:26;-4.10;99.90
37528;DHT22;23372;52.050;4.810;2024-01-10T06:11:52;-4.10;99.90
37528;DHT22;23372;52.050;4.810;2024-01-10T06:14:18;-4.10;99.90
37528;DHT22;23372;52.050;4.810;2024-01-10T06:16:44;-4.10;99.90
37528;DHT22;23372;52.050;4.810;2024-01-10T06:19:11;-4.10;99.90
37528;DHT22;23372;52.050;4.810;2024-01-10T06:21:37;-4.10;99.90
37528;DHT22;23372;52.050;4.810;2024-01-10T06:24:03;-4.10;99.90
37528;DHT22;23372;52.050;4.810;2024-01-10T06:26:28;-4.20;99.90
37528;DHT22;23372;52.050;4.810;2024-01-10T06:28:54;-4.20;99.90
37528;DHT22;23372;52.050;4.810;2024-01-10T06:31:20;-4.20;99.90
37528;DHT22;23372;52.050;4.810;2024-01-10T06:33:45;-4.30;99.90
37528;DHT22;23372;52.050;4.810;2024-01-10T06:36:11;-4.30;99.90
37528;DHT22;23372;52.050;4.810;2024-01-10T06:38:38;-4.30;99.90
37528;DHT22;23372;52.050;4.810;2024-01-10T06:41:11;-4.20;99.90
37528;DHT22;23372;52.050;4.810;2024-01-10T06:43:39;-4.30;99.90
37528;DHT22;23372;52.050;4.810;2024-01-10T06:46:06;-4.30;99.90
37528;DHT22;23372;52.050;4.810;2024-01-10T06:48:32;-4.30;99.90
37528;DHT22;23372;52.050;4.810;2024-01-10T06:50:59;-4.30;99.90
37528;DHT22;23372;52.050;4.810;2024-01-10T06:53:24;-4.30;99.90
37528;DHT22;23372;52.050;4.810;2024-01-10T06:55:50;-4.30;99.90
37528;DHT22;23372;52.050;4.810;2024-01-10T06:58:16;-4.30;99.90
37528;DHT22;23372;52.050;4.810;2024-01-10T07:00:41;-4.30;99.90
37528;DHT22;23372;52.050;4.810;2024-01-10T07:03:07;-4.30;99.90
37528;DHT22;23372;52.050;4.810;2024-01-10T07:05:33;-4.30;99.90
37528;DHT22;23372;52.050;4.810;2024-01-10T07:07:59;-4.30;99.90
37528;DHT22;23372;52.050;4.810;2024-01-10T07:10:24;-4.30;99.90
37528;DHT22;23372;52.050;4.810;2024-01-10T07:12:54;-4.30;99.90
37528;DHT22;23372;52.050;4.810;2024-01-10T07:15:20;-4.30;99.90
37528;DHT22;23372;52.050;4.810;2024-01-10T07:17:45;-4.40;99.90
37528;DHT22;23372;52.050;4.810;2024-01-10T07:20:11;-4.40;99.90
37528;DHT22;23372;52.050;4.810;2024-01-10T07:22:38;-4.40;99.90
37528;DHT22;23372;52.050;4.810;2024-01-10T07:25:12;-4.40;99.90
37528;DHT22;23372;52.050;4.810;2024-01-10T07:27:40;-4.40;99.90
37528;DHT22;23372;52.050;4.810;2024-01-10T07:30:07;-4.40;99.90
37528;DHT22;23372;52.050;4.810;2024-01-10T07:32:42;-4.40;99.90
37528;DHT22;23372;52.050;4.810;2024-01-10T07:35:08;-4.40;99.90
37528;DHT22;23372;52.050;4.810;2024-01-10T07:37:38;-4.50;99.90
37528;DHT22;23372;52.050;4.810;2024-01-10T07:40:05;-4.50;99.90
37528;DHT22;23372;52.050;4.810;2024-01-10T07:42:35;-4.60;99.90
37528;DHT22;23372;52.050;4.810;2024-01-10T07:45:01;-4.60;99.90
37528;DHT22;23372;52.050;4.810;2024-01-10T07:47:30;-4.60;99.90
37528;DHT22;23372;52.050;4.810;2024-01-10T07:49:57;-4.60;99.90
37528;DHT22;23372;52.050;4.810;2024-01-10T07:52:22;-4.60;99.90
37528;DHT22;23372;52.050;4.810;2024-01-10T07:54:48;-4.60;99.90
37528;DHT22;23372;52.050;4.810;2024-01-10T07:57:14;-4.60;99.90
37528;DHT22;23372;52.050;4.810;2024-01-10T07:59:39;-4.60;99.90
37528;DHT22;23372;52.050;4.810;2024-01-10T08:02:05;-4.60;99.90
37528;DHT22;23372;52.050;4.810;2024-01-10T08:04:31;-4.60;99.90
37528;DHT22;23372;52.050;4.810;2024-01-10T08:06:56;-4.70;99.90
37528;DHT22;23372;52.050;4.810;2024-01-10T08:09:22;-4.70;99.90
37528;DHT22;23372;52.050;4.810;2024-01-10T08:11:49;-4.60;99.90
37528;DHT22;23372;52.050;4.810;2024-01-10T08:14:15;-4.50;99.90
37528;DHT22;23372;52.050;4.810;2024-01-10T08:16:41;-4.50;99.90
37528;DHT22;23372;52.050;4.810;2024-01-10T08:19:07;-4.50;99.90
37528;DHT22;23372;52.050;4.810;2024-01-10T08:21:33;-4.40;99.90
37528;DHT22;23372;52.050;4.810;2024-01-10T08:23:59;-4.40;99.90
37528;DHT22;23372;52.050;4.810;2024-01-10T08:26:25;-4.30;99.90
37528;DHT22;23372;52.050;4.810;2024-01-10T08:28:52;-4.20;99.90
37528;DHT22;23372;52.050;4.810;2024-01-10T08:31:18;-4.20;99.90
37528;DHT22;23372;52.050;4.810;2024-01-10T08:33:43;-4.10;99.90
37528;DHT22;23372;52.050;4.810;2024-01-10T08:36:09;-4.10;99.90
37528;DHT22;23372;52.050;4.810;2024-01-10T08:38:38;-4.10;99.90
37528;DHT22;23372;52.050;4.810;2024-01-10T08:41:04;-4.10;99.90
37528;DHT22;23372;52.050;4.810;2024-01-10T08:43:29;-4.00;99.90
37528;DHT22;23372;52.050;4.810;2024-01-10T08:45:56;-4.00;99.90
37528;DHT22;23372;52.050;4.810;2024-01-10T08:48:23;-4.00;99.90
37528;DHT22;23372;52.050;4.810;2024-01-10T08:50:48;-3.90;99.90
37528;DHT22;23372;52.050;4.810;2024-01-10T08:53:14;-3.90;99.90
37528;DHT22;23372;52.050;4.810;2024-01-10T08:55:41;-3.80;99.90
37528;DHT22;23372;52.050;4.810;2024-01-10T08:58:07;-3.80;99.90
37528;DHT22;23372;52.050;4.810;2024-01-10T09:00:32;-3.70;99.90
37528;DHT22;23372;52.050;4.810;2024-01-10T09:02:59;-3.70;99.90
37528;DHT22;23372;52.050;4.810;2024-01-10T09:05:25;-3.60;99.90
37528;DHT22;23372;52.050;4.810;2024-01-10T09:07:50;-3.60;99.90
37528;DHT22;23372;52.050;4.810;2024-01-10T09:10:16;-3.50;99.90
37528;DHT22;23372;52.050;4.810;2024-01-10T09:12:42;-3.50;99.90
37528;DHT22;23372;52.050;4.810;2024-01-10T09:15:11;-3.40;99.90
37528;DHT22;23372;52.050;4.810;2024-01-10T09:17:39;-3.40;99.90
37528;DHT22;23372;52.050;4.810;2024-01-10T09:20:05;-3.30;99.90
37528;DHT22;23372;52.050;4.810;2024-01-10T09:22:30;-3.20;99.90
37528;DHT22;23372;52.050;4.810;2024-01-10T09:24:56;-3.20;99.90
37528;DHT22;23372;52.050;4.810;2024-01-10T09:27:24;-3.20;99.90
37528;DHT22;23372;52.050;4.810;2024-01-10T09:29:50;-3.10;99.90
37528;DHT22;23372;52.050;4.810;2024-01-10T09:32:16;-2.40;99.90
37528;DHT22;23372;52.050;4.810;2024-01-10T09:34:42;-1.40;99.90
37528;DHT22;23372;52.050;4.810;2024-01-10T09:37:07;-0.80;99.90
37528;DHT22;23372;52.050;4.810;2024-01-10T09:39:33;0.40;99.90
37528;DHT22;23372;52.050;4.810;2024-01-10T09:41:58;1.40;98.30
37528;DHT22;23372;52.050;4.810;2024-01-10T09:44:24;2.50;87.20
37528;DHT22;23372;52.050;4.810;2024-01-10T09:46:52;2.70;74.40
37528;DHT22;23372;52.050;4.810;2024-01-10T09:49:18;3.50;72.00
37528;DHT22;23372;52.050;4.810;2024-01-10T09:51:48;3.40;69.40
37528;DHT22;23372;52.050;4.810;2024-01-10T09:54:15;3.80;62.80
37528;DHT22;23372;52.050;4.810;2024-01-10T09:56:45;3.40;59.20
37528;DHT22;23372;52.050;4.810;2024-01-10T09:59:11;3.20;58.00
37528;DHT22;23372;52.050;4.810;2024-01-10T10:01:39;3.40;57.10
37528;DHT22;23372;52.050;4.810;2024-01-10T10:04:06;3.20;58.10
37528;DHT22;23372;52.050;4.810;2024-01-10T10:06:33;3.00;57.40
37528;DHT22;23372;52.050;4.810;2024-01-10T10:08:59;2.20;57.40
37528;DHT22;23372;52.050;4.810;2024-01-10T10:11:25;1.40;59.50
37528;DHT22;23372;52.050;4.810;2024-01-10T10:13:51;0.40;60.90
37528;DHT22;23372;52.050;4.810;2024-01-10T10:16:23;-0.10;72.70
37528;DHT22;23372;52.050;4.810;2024-01-10T10:18:50;-0.20;80.70
37528;DHT22;23372;52.050;4.810;2024-01-10T10:21:16;0.20;86.70
37528;DHT22;23372;52.050;4.810;2024-01-10T10:23:43;0.80;75.90
37528;DHT22;23372;52.050;4.810;2024-01-10T10:26:22;0.60;75.90
37528;DHT22;23372;52.050;4.810;2024-01-10T10:28:50;0.80;79.20
37528;DHT22;23372;52.050;4.810;2024-01-10T10:31:17;0.70;75.60
37528;DHT22;23372;52.050;4.810;2024-01-10T10:33:43;1.20;73.60
37528;DHT22;23372;52.050;4.810;2024-01-10T10:36:09;1.50;65.60
37528;DHT22;23372;52.050;4.810;2024-01-10T10:38:35;2.50;63.60
37528;DHT22;23372;52.050;4.810;2024-01-10T10:41:05;2.00;61.50
37528;DHT22;23372;52.050;4.810;2024-01-10T10:43:34;1.60;63.50
37528;DHT22;23372;52.050;4.810;2024-01-10T10:46:08;2.20;62.60
37528;DHT22;23372;52.050;4.810;2024-01-10T10:48:38;1.90;58.90
37528;DHT22;23372;52.050;4.810;2024-01-10T10:51:23;1.60;61.20
37528;DHT22;23372;52.050;4.810;2024-01-10T10:53:55;1.90;61.70
37528;DHT22;23372;52.050;4.810;2024-01-10T10:56:21;1.30;61.80
37528;DHT22;23372;52.050;4.810;2024-01-10T10:58:49;0.90;69.00
37528;DHT22;23372;52.050;4.810;2024-01-10T11:01:16;0.60;70.50
37528;DHT22;23372;52.050;4.810;2024-01-10T11:03:42;0.30;71.00
37528;DHT22;23372;52.050;4.810;2024-01-10T11:06:10;0.00;73.20
37528;DHT22;23372;52.050;4.810;2024-01-10T11:08:46;-0.10;78.70
37528;DHT22;23372;52.050;4.810;2024-01-10T11:11:26;-0.30;83.20
37528;DHT22;23372;52.050;4.810;2024-01-10T11:17:26;-0.50;85.80
37528;DHT22;23372;52.050;4.810;2024-01-10T11:20:28;-0.60;85.50
37528;DHT22;23372;52.050;4.810;2024-01-10T11:25:58;-0.50;89.20
37528;DHT22;23372;52.050;4.810;2024-01-10T11:28:25;-0.50;82.90
37528;DHT22;23372;52.050;4.810;2024-01-10T11:30:53;-0.50;86.60
37528;DHT22;23372;52.050;4.810;2024-01-10T11:33:23;-0.50;86.10
37528;DHT22;23372;52.050;4.810;2024-01-10T11:39:00;-0.30;88.50
37528;DHT22;23372;52.050;4.810;2024-01-10T11:41:31;-0.30;84.40
37528;DHT22;23372;52.050;4.810;2024-01-10T11:46:46;-0.10;83.60
37528;DHT22;23372;52.050;4.810;2024-01-10T11:49:17;0.00;83.30
37528;DHT22;23372;52.050;4.810;2024-01-10T11:51:45;0.10;82.20
37528;DHT22;23372;52.050;4.810;2024-01-10T11:54:11;0.10;75.30
37528;DHT22;23372;52.050;4.810;2024-01-10T11:56:41;0.20;71.90
37528;DHT22;23372;52.050;4.810;2024-01-10T11:59:08;0.20;73.40
37528;DHT22;23372;52.050;4.810;2024-01-10T12:01:36;0.30;72.40
37528;DHT22;23372;52.050;4.810;2024-01-10T12:04:02;0.40;72.10
37528;DHT22;23372;52.050;4.810;2024-01-10T12:06:29;0.40;73.00
37528;DHT22;23372;52.050;4.810;2024-01-10T12:08:55;0.40;70.10
37528;DHT22;23372;52.050;4.810;2024-01-10T12:11:21;0.40;68.00
37528;DHT22;23372;52.050;4.810;2024-01-10T12:13:47;0.50;70.50
37528;DHT22;23372;52.050;4.810;2024-01-10T12:16:13;0.50;68.80
37528;DHT22;23372;52.050;4.810;2024-01-10T12:18:40;0.40;69.70
37528;DHT22;23372;52.050;4.810;2024-01-10T12:21:05;0.40;67.70
37528;DHT22;23372;52.050;4.810;2024-01-10T12:23:31;0.40;65.80
37528;DHT22;23372;52.050;4.810;2024-01-10T12:25:57;0.40;72.30
37528;DHT22;23372;52.050;4.810;2024-01-10T12:28:23;0.50;71.50
37528;DHT22;23372;52.050;4.810;2024-01-10T12:30:48;0.50;69.20
37528;DHT22;23372;52.050;4.810;2024-01-10T12:33:14;0.60;69.70
37528;DHT22;23372;52.050;4.810;2024-01-10T12:35:39;0.70;71.50
37528;DHT22;23372;52.050;4.810;2024-01-10T12:38:10;0.80;68.70
37528;DHT22;23372;52.050;4.810;2024-01-10T12:40:37;0.80;64.90
37528;DHT22;23372;52.050;4.810;2024-01-10T12:43:03;0.80;63.20
37528;DHT22;23372;52.050;4.810;2024-01-10T12:45:29;0.80;64.60
37528;DHT22;23372;52.050;4.810;2024-01-10T12:47:55;0.80;63.00
37528;DHT22;23372;52.050;4.810;2024-01-10T12:50:20;0.80;63.10
37528;DHT22;23372;52.050;4.810;2024-01-10T12:52:46;0.90;65.70
37528;DHT22;23372;52.050;4.810;2024-01-10T12:55:14;0.90;63.70
37528;DHT22;23372;52.050;4.810;2024-01-10T12:57:39;0.80;63.20
37528;DHT22;23372;52.050;4.810;2024-01-10T13:00:07;0.80;63.60
37528;DHT22;23372;52.050;4.810;2024-01-10T13:02:35;0.80;64.30
37528;DHT22;23372;52.050;4.810;2024-01-10T13:05:03;0.70;63.50
37528;DHT22;23372;52.050;4.810;2024-01-10T13:07:29;0.80;64.70
37528;DHT22;23372;52.050;4.810;2024-01-10T13:09:56;0.70;65.50
37528;DHT22;23372;52.050;4.810;2024-01-10T13:12:22;0.70;66.30
37528;DHT22;23372;52.050;4.810;2024-01-10T13:14:48;0.70;64.80
37528;DHT22;23372;52.050;4.810;2024-01-10T13:17:13;0.70;64.50
37528;DHT22;23372;52.050;4.810;2024-01-10T13:19:39;0.70;66.20
37528;DHT22;23372;52.050;4.810;2024-01-10T13:22:04;0.70;67.00
37528;DHT22;23372;52.050;4.810;2024-01-10T13:24:30;0.60;65.90
37528;DHT22;23372;52.050;4.810;2024-01-10T13:26:55;0.60;68.60
37528;DHT22;23372;52.050;4.810;2024-01-10T13:29:21;0.60;71.70
37528;DHT22;23372;52.050;4.810;2024-01-10T13:31:47;0.60;77.30
37528;DHT22;23372;52.050;4.810;2024-01-10T13:34:14;0.60;79.60
37528;DHT22;23372;52.050;4.810;2024-01-10T13:36:40;0.50;80.60
37528;DHT22;23372;52.050;4.810;2024-01-10T13:39:06;0.50;80.40
37528;DHT22;23372;52.050;4.810;2024-01-10T13:41:32;0.50;81.90
37528;DHT22;23372;52.050;4.810;2024-01-10T13:43:58;0.50;83.20
37528;DHT22;23372;52.050;4.810;2024-01-10T13:46:23;0.50;87.30
37528;DHT22;23372;52.050;4.810;2024-01-10T13:48:49;0.50;90.40
37528;DHT22;23372;52.050;4.810;2024-01-10T13:51:14;0.50;89.00
37528;DHT22;23372;52.050;4.810;2024-01-10T13:53:40;0.40;90.90
37528;DHT22;23372;52.050;4.810;2024-01-10T13:56:06;0.50;91.60
37528;DHT22;23372;52.050;4.810;2024-01-10T13:58:32;0.50;90.00
37528;DHT22;23372;52.050;4.810;2024-01-10T14:00:59;0.50;89.40
37528;DHT22;23372;52.050;4.810;2024-01-10T14:03:24;0.50;88.70
37528;DHT22;23372;52.050;4.810;2024-01-10T14:05:50;0.50;85.40
37528;DHT22;23372;52.050;4.810;2024-01-10T14:08:15;0.50;89.30
37528;DHT22;23372;52.050;4.810;2024-01-10T14:10:41;0.50;90.70
37528;DHT22;23372;52.050;4.810;2024-01-10T14:13:07;0.50;90.30
37528;DHT22;23372;52.050;4.810;2024-01-10T14:15:33;0.50;86.90
37528;DHT22;23372;52.050;4.810;2024-01-10T14:17:59;0.50;81.80
37528;DHT22;23372;52.050;4.810;2024-01-10T14:20:24;0.50;89.50
37528;DHT22;23372;52.050;4.810;2024-01-10T14:22:50;0.40;91.00
37528;DHT22;23372;52.050;4.810;2024-01-10T14:25:16;0.40;92.80
37528;DHT22;23372;52.050;4.810;2024-01-10T14:27:41;0.40;92.50
37528;DHT22;23372;52.050;4.810;2024-01-10T14:30:07;0.40;90.00
37528;DHT22;23372;52.050;4.810;2024-01-10T14:32:36;0.40;88.50
37528;DHT22;23372;52.050;4.810;2024-01-10T14:35:02;0.30;90.80
37528;DHT22;23372;52.050;4.810;2024-01-10T14:37:28;0.30;90.70
37528;DHT22;23372;52.050;4.810;2024-01-10T14:39:53;0.30;91.00
37528;DHT22;23372;52.050;4.810;2024-01-10T14:42:19;0.30;91.30
37528;DHT22;23372;52.050;4.810;2024-01-10T14:44:44;0.30;90.40
37528;DHT22;23372;52.050;4.810;2024-01-10T14:47:10;0.30;89.00
37528;DHT22;23372;52.050;4.810;2024-01-10T14:49:36;0.30;90.10
37528;DHT22;23372;52.050;4.810;2024-01-10T14:52:01;0.20;90.50
37528;DHT22;23372;52.050;4.810;2024-01-10T14:54:27;0.20;88.70
37528;DHT22;23372;52.050;4.810;2024-01-10T14:56:53;0.20;90.70
37528;DHT22;23372;52.050;4.810;2024-01-10T14:59:18;0.10;95.50
37528;DHT22;23372;52.050;4.810;2024-01-10T15:01:47;0.10;99.20
37528;DHT22;23372;52.050;4.810;2024-01-10T15:04:13;0.00;99.90
37528;DHT22;23372;52.050;4.810;2024-01-10T15:06:43;-0.10;99.90
37528;DHT22;23372;52.050;4.810;2024-01-10T15:09:09;-0.10;99.90
37528;DHT22;23372;52.050;4.810;2024-01-10T15:11:35;-0.20;99.90
37528;DHT22;23372;52.050;4.810;2024-01-10T15:14:01;-0.20;99.90
37528;DHT22;23372;52.050;4.810;2024-01-10T15:16:26;-0.20;99.90
37528;DHT22;23372;52.050;4.810;2024-01-10T15:18:52;-0.30;99.90
37528;DHT22;23372;52.050;4.810;2024-01-10T15:21:17;-0.30;99.90
37528;DHT22;23372;52.050;4.810;2024-01-10T15:23:44;-0.40;99.90
37528;DHT22;23372;52.050;4.810;2024-01-10T15:26:15;-0.40;99.90
37528;DHT22;23372;52.050;4.810;2024-01-10T15:28:43;-0.40;99.90
37528;DHT22;23372;52.050;4.810;2024-01-10T15:31:19;-0.40;99.90
37528;DHT22;23372;52.050;4.810;2024-01-10T15:33:44;-0.50;99.90
37528;DHT22;23372;52.050;4.810;2024-01-10T15:36:11;-0.60;99.90
37528;DHT22;23372;52.050;4.810;2024-01-10T15:38:38;-0.60;99.90
37528;DHT22;23372;52.050;4.810;2024-01-10T15:41:06;-0.60;99.90
37528;DHT22;23372;52.050;4.810;2024-01-10T15:43:32;-0.60;99.90